sensor_id;sensor_type;location;lat;lon;timestamp;P1;durP1;ratioP1;P2;durP2;ratioP2
30303;SDS011;17112;48.636;10.152;2023-06-14T00:01:45;4.43;;;2.95;;
30303;SDS011;17112;48.636;10.152;2023-06-14T00:04:14;4.00;;;2.60;;
30303;SDS011;17112;48.636;10.152;2023-06-14T00:06:43;5.22;;;2.70;;
30303;SDS011;17112;48.636;10.152;2023-06-14T00:09:13;4.68;;;2.58;;
30303;SDS011;17112;48.636;10.152;2023-06-14T00:11:42;10.52;;;2.83;;
30303;SDS011;17112;48.636;10.152;2023-06-14T00:14:08;5.88;;;3.03;;
30303;SDS011;17112;48.636;10.152;2023-06-14T00:16:34;6.53;;;3.00;;
30303;SDS011;17112;48.636;10.152;2023-06-14T00:19:02;9.05;;;2.97;;
30303;SDS011;17112;48.636;10.152;2023-06-14T00:21:29;5.15;;;2.30;;
30303;SDS011;17112;48.636;10.152;2023-06-14T00:23:55;5.40;;;2.75;;
30303;SDS011;17112;48.636;10.152;2023-06-14T00:26:22;6.05;;;3.00;;
30303;SDS011;17112;48.636;10.152;2023-06-14T00:28:48;8.85;;;3.15;;
30303;SDS011;17112;48.636;10.152;2023-06-14T00:31:14;8.00;;;3.42;;
30303;SDS011;17112;48.636;10.152;2023-06-14T00:33:40;4.85;;;3.30;;
30303;SDS011;17112;48.636;10.152;2023-06-14T00:36:06;4.20;;;3.13;;
30303;SDS011;17112;48.636;10.152;2023-06-14T00:38:31;6.50;;;3.17;;
30303;SDS011;17112;48.636;10.152;2023-06-14T00:40:57;5.60;;;3.30;;
30303;SDS011;17112;48.636;10.152;2023-06-14T00:43:23;4.30;;;3.03;;
30303;SDS011;17112;48.636;10.152;2023-06-14T00:45:49;6.18;;;3.60;;
30303;SDS011;17112;48.636;10.152;2023-06-14T00:48:16;5.68;;;3.55;;
30303;SDS011;17112;48.636;10.152;2023-06-14T00:50:43;4.63;;;2.90;;
30303;SDS011;17112;48.636;10.152;2023-06-14T00:53:11;8.95;;;3.08;;
30303;SDS011;17112;48.636;10.152;2023-06-14T00:55:37;3.15;;;2.72;;
30303;SDS011;17112;48.636;10.152;2023-06-14T00:58:03;4.65;;;3.33;;
30303;SDS011;17112;48.636;10.152;2023-06-14T01:00:29;4.13;;;3.10;;
30303;SDS011;17112;48.636;10.152;2023-06-14T01:02:55;9.15;;;3.65;;
30303;SDS011;17112;48.636;10.152;2023-06-14T01:05:22;6.50;;;3.65;;
30303;SDS011;17112;48.636;10.152;2023-06-14T01:13:40;3.80;;;2.97;;
30303;SDS011;17112;48.636;10.152;2023-06-14T01:16:10;5.20;;;3.30;;
30303;SDS011;17112;48.636;10.152;2023-06-14T01:18:37;5.05;;;3.40;;
30303;SDS011;17112;48.636;10.152;2023-06-14T01:21:03;9.30;;;3.15;;
30303;SDS011;17112;48.636;10.152;2023-06-14T01:23:32;4.95;;;3.08;;
30303;SDS011;17112;48.636;10.152;2023-06-14T01:25:58;4.10;;;2.80;;
30303;SDS011;17112;48.636;10.152;2023-06-14T01:28:25;3.28;;;2.97;;
30303;SDS011;17112;48.636;10.152;2023-06-14T01:30:57;8.18;;;3.10;;
30303;SDS011;17112;48.636;10.152;2023-06-14T01:33:29;8.57;;;3.40;;
30303;SDS011;17112;48.636;10.152;2023-06-14T01:35:56;5.50;;;3.25;;
30303;SDS011;17112;48.636;10.152;2023-06-14T01:38:25;7.47;;;3.03;;
30303;SDS011;17112;48.636;10.152;2023-06-14T01:40:53;4.90;;;2.92;;
30303;SDS011;17112;48.636;10.152;2023-06-14T01:43:20;4.75;;;3.58;;
30303;SDS011;17112;48.636;10.152;2023-06-14T01:45:47;4.05;;;3.05;;
30303;SDS011;17112;48.636;10.152;2023-06-14T01:48:15;5.32;;;3.17;;
30303;SDS011;17112;48.636;10.152;2023-06-14T01:50:42;3.38;;;2.70;;
30303;SDS011;17112;48.636;10.152;2023-06-14T01:53:08;6.95;;;3.70;;
30303;SDS011;17112;48.636;10.152;2023-06-14T01:55:34;5.07;;;3.13;;
30303;SDS011;17112;48.636;10.152;2023-06-14T01:58:02;7.75;;;3.40;;
30303;SDS011;17112;48.636;10.152;2023-06-14T02:00:29;6.20;;;3.35;;
30303;SDS011;17112;48.636;10.152;2023-06-14T02:02:55;4.40;;;3.10;;
30303;SDS011;17112;48.636;10.152;2023-06-14T02:05:21;5.20;;;3.15;;
30303;SDS011;17112;48.636;10.152;2023-06-14T02:07:47;6.10;;;3.30;;
30303;SDS011;17112;48.636;10.152;2023-06-14T02:10:13;4.63;;;3.00;;
30303;SDS011;17112;48.636;10.152;2023-06-14T02:12:40;5.40;;;3.08;;
30303;SDS011;17112;48.636;10.152;2023-06-14T02:15:06;5.47;;;2.92;;
30303;SDS011;17112;48.636;10.152;2023-06-14T02:17:33;4.63;;;3.17;;
30303;SDS011;17112;48.636;10.152;2023-06-14T02:19:59;6.45;;;3.38;;
30303;SDS011;17112;48.636;10.152;2023-06-14T02:22:25;4.53;;;3.20;;
30303;SDS011;17112;48.636;10.152;2023-06-14T02:24:51;3.88;;;3.38;;
30303;SDS011;17112;48.636;10.152;2023-06-14T02:27:17;4.68;;;2.95;;
30303;SDS011;17112;48.636;10.152;2023-06-14T02:29:43;7.30;;;3.15;;
30303;SDS011;17112;48.636;10.152;2023-06-14T02:32:09;4.18;;;3.13;;
30303;SDS011;17112;48.636;10.152;2023-06-14T02:34:35;4.95;;;3.42;;
30303;SDS011;17112;48.636;10.152;2023-06-14T02:37:01;4.47;;;3.25;;
30303;SDS011;17112;48.636;10.152;2023-06-14T02:39:30;3.88;;;3.20;;
30303;SDS011;17112;48.636;10.152;2023-06-14T02:41:56;6.40;;;2.97;;
30303;SDS011;17112;48.636;10.152;2023-06-14T02:44:25;5.05;;;3.28;;
30303;SDS011;17112;48.636;10.152;2023-06-14T02:46:54;7.57;;;3.65;;
30303;SDS011;17112;48.636;10.152;2023-06-14T02:49:21;7.50;;;3.30;;
30303;SDS011;17112;48.636;10.152;2023-06-14T02:51:47;7.85;;;3.13;;
30303;SDS011;17112;48.636;10.152;2023-06-14T02:54:13;5.90;;;3.22;;
30303;SDS011;17112;48.636;10.152;2023-06-14T02:56:39;4.07;;;3.00;;
30303;SDS011;17112;48.636;10.152;2023-06-14T02:59:05;6.40;;;3.25;;
30303;SDS011;17112;48.636;10.152;2023-06-14T03:01:32;4.70;;;3.33;;
30303;SDS011;17112;48.636;10.152;2023-06-14T03:04:06;7.13;;;3.30;;
30303;SDS011;17112;48.636;10.152;2023-06-14T03:06:34;4.57;;;3.35;;
30303;SDS011;17112;48.636;10.152;2023-06-14T03:09:01;4.80;;;3.20;;
30303;SDS011;17112;48.636;10.152;2023-06-14T03:11:31;6.45;;;3.28;;
30303;SDS011;17112;48.636;10.152;2023-06-14T03:13:57;4.45;;;3.03;;
30303;SDS011;17112;48.636;10.152;2023-06-14T03:16:23;5.47;;;3.17;;
30303;SDS011;17112;48.636;10.152;2023-06-14T03:18:50;4.68;;;3.20;;
30303;SDS011;17112;48.636;10.152;2023-06-14T03:21:17;5.75;;;3.00;;
30303;SDS011;17112;48.636;10.152;2023-06-14T03:23:45;4.78;;;3.35;;
30303;SDS011;17112;48.636;10.152;2023-06-14T03:26:11;5.85;;;3.63;;
30303;SDS011;17112;48.636;10.152;2023-06-14T03:28:43;5.07;;;3.35;;
30303;SDS011;17112;48.636;10.152;2023-06-14T03:31:10;4.95;;;3.47;;
30303;SDS011;17112;48.636;10.152;2023-06-14T03:33:36;9.98;;;3.67;;
30303;SDS011;17112;48.636;10.152;2023-06-14T03:36:02;4.78;;;3.05;;
30303;SDS011;17112;48.636;10.152;2023-06-14T03:38:28;4.90;;;2.80;;
30303;SDS011;17112;48.636;10.152;2023-06-14T03:40:54;7.05;;;3.35;;
30303;SDS011;17112;48.636;10.152;2023-06-14T03:43:20;4.82;;;3.15;;
30303;SDS011;17112;48.636;10.152;2023-06-14T03:45:46;4.63;;;3.28;;
30303;SDS011;17112;48.636;10.152;2023-06-14T03:48:12;7.78;;;3.33;;
30303;SDS011;17112;48.636;10.152;2023-06-14T03:50:37;4.22;;;2.88;;
30303;SDS011;17112;48.636;10.152;2023-06-14T03:53:04;5.20;;;3.38;;
30303;SDS011;17112;48.636;10.152;2023-06-14T03:55:30;5.00;;;3.05;;
30303;SDS011;17112;48.636;10.152;2023-06-14T03:57:56;5.28;;;3.50;;
30303;SDS011;17112;48.636;10.152;2023-06-14T04:00:22;5.00;;;3.00;;
30303;SDS011;17112;48.636;10.152;2023-06-14T04:02:48;5.82;;;3.58;;
30303;SDS011;17112;48.636;10.152;2023-06-14T04:05:14;7.97;;;3.58;;
30303;SDS011;17112;48.636;10.152;2023-06-14T04:07:42;5.20;;;3.70;;
30303;SDS011;17112;48.636;10.152;2023-06-14T04:10:10;6.20;;;3.40;;
30303;SDS011;17112;48.636;10.152;2023-06-14T04:12:37;5.57;;;3.35;;
30303;SDS011;17112;48.636;10.152;2023-06-14T04:15:03;5.65;;;3.55;;
30303;SDS011;17112;48.636;10.152;2023-06-14T04:17:31;6.05;;;3.42;;
30303;SDS011;17112;48.636;10.152;2023-06-14T04:19:58;6.10;;;3.05;;
30303;SDS011;17112;48.636;10.152;2023-06-14T04:22:25;4.57;;;3.00;;
30303;SDS011;17112;48.636;10.152;2023-06-14T04:24:55;5.13;;;3.17;;
30303;SDS011;17112;48.636;10.152;2023-06-14T04:27:22;8.88;;;2.95;;
30303;SDS011;17112;48.636;10.152;2023-06-14T04:29:54;4.15;;;3.15;;
30303;SDS011;17112;48.636;10.152;2023-06-14T04:32:24;4.95;;;3.15;;
30303;SDS011;17112;48.636;10.152;2023-06-14T04:34:54;6.10;;;3.33;;
30303;SDS011;17112;48.636;10.152;2023-06-14T04:37:24;3.83;;;3.10;;
30303;SDS011;17112;48.636;10.152;2023-06-14T04:39:53;6.00;;;3.58;;
30303;SDS011;17112;48.636;10.152;2023-06-14T04:42:21;4.78;;;3.22;;
30303;SDS011;17112;48.636;10.152;2023-06-14T04:44:50;7.30;;;3.50;;
30303;SDS011;17112;48.636;10.152;2023-06-14T04:47:17;4.97;;;3.40;;
30303;SDS011;17112;48.636;10.152;2023-06-14T04:49:43;7.32;;;3.05;;
30303;SDS011;17112;48.636;10.152;2023-06-14T04:52:09;9.63;;;3.70;;
30303;SDS011;17112;48.636;10.152;2023-06-14T04:54:41;6.90;;;3.30;;
30303;SDS011;17112;48.636;10.152;2023-06-14T04:57:08;4.57;;;3.42;;
30303;SDS011;17112;48.636;10.152;2023-06-14T04:59:42;8.20;;;3.00;;
30303;SDS011;17112;48.636;10.152;2023-06-14T05:02:09;11.13;;;3.22;;
30303;SDS011;17112;48.636;10.152;2023-06-14T05:04:35;6.50;;;3.33;;
30303;SDS011;17112;48.636;10.152;2023-06-14T05:07:06;11.77;;;3.33;;
30303;SDS011;17112;48.636;10.152;2023-06-14T05:09:35;11.00;;;3.47;;
30303;SDS011;17112;48.636;10.152;2023-06-14T05:12:04;10.15;;;3.70;;
30303;SDS011;17112;48.636;10.152;2023-06-14T05:14:33;11.95;;;3.97;;
30303;SDS011;17112;48.636;10.152;2023-06-14T05:16:59;12.40;;;3.90;;
30303;SDS011;17112;48.636;10.152;2023-06-14T05:19:25;6.63;;;3.53;;
30303;SDS011;17112;48.636;10.152;2023-06-14T05:21:51;9.52;;;3.75;;
30303;SDS011;17112;48.636;10.152;2023-06-14T05:24:18;6.07;;;3.72;;
30303;SDS011;17112;48.636;10.152;2023-06-14T05:26:44;6.40;;;3.80;;
30303;SDS011;17112;48.636;10.152;2023-06-14T05:29:10;9.73;;;3.63;;
30303;SDS011;17112;48.636;10.152;2023-06-14T05:31:36;9.13;;;3.53;;
30303;SDS011;17112;48.636;10.152;2023-06-14T05:34:02;9.15;;;3.55;;
30303;SDS011;17112;48.636;10.152;2023-06-14T05:36:28;9.23;;;4.20;;
30303;SDS011;17112;48.636;10.152;2023-06-14T05:38:54;22.77;;;4.90;;
30303;SDS011;17112;48.636;10.152;2023-06-14T05:41:28;33.25;;;3.90;;
30303;SDS011;17112;48.636;10.152;2023-06-14T05:43:55;13.68;;;3.90;;
30303;SDS011;17112;48.636;10.152;2023-06-14T05:46:21;6.22;;;3.92;;
30303;SDS011;17112;48.636;10.152;2023-06-14T05:48:53;10.70;;;4.00;;
30303;SDS011;17112;48.636;10.152;2023-06-14T05:51:20;12.25;;;5.13;;
30303;SDS011;17112;48.636;10.152;2023-06-14T05:53:47;12.18;;;5.22;;
30303;SDS011;17112;48.636;10.152;2023-06-14T05:56:16;9.73;;;3.92;;
30303;SDS011;17112;48.636;10.152;2023-06-14T05:58:43;15.55;;;3.45;;
30303;SDS011;17112;48.636;10.152;2023-06-14T06:01:09;7.63;;;3.58;;
30303;SDS011;17112;48.636;10.152;2023-06-14T06:03:35;6.68;;;3.30;;
30303;SDS011;17112;48.636;10.152;2023-06-14T06:06:01;5.45;;;3.28;;
30303;SDS011;17112;48.636;10.152;2023-06-14T06:08:28;6.78;;;2.83;;
30303;SDS011;17112;48.636;10.152;2023-06-14T06:10:54;7.20;;;2.97;;
30303;SDS011;17112;48.636;10.152;2023-06-14T06:13:21;6.30;;;2.90;;
30303;SDS011;17112;48.636;10.152;2023-06-14T06:15:46;10.30;;;2.63;;
30303;SDS011;17112;48.636;10.152;2023-06-14T06:18:12;5.35;;;2.63;;
30303;SDS011;17112;48.636;10.152;2023-06-14T06:20:38;8.75;;;3.17;;
30303;SDS011;17112;48.636;10.152;2023-06-14T06:23:04;7.88;;;2.80;;
30303;SDS011;17112;48.636;10.152;2023-06-14T06:25:29;5.03;;;2.97;;
30303;SDS011;17112;48.636;10.152;2023-06-14T06:27:57;5.18;;;3.17;;
30303;SDS011;17112;48.636;10.152;2023-06-14T06:30:23;6.75;;;2.80;;
30303;SDS011;17112;48.636;10.152;2023-06-14T06:32:49;12.65;;;2.75;;
30303;SDS011;17112;48.636;10.152;2023-06-14T06:35:15;6.15;;;2.95;;
30303;SDS011;17112;48.636;10.152;2023-06-14T06:37:41;5.50;;;2.88;;
30303;SDS011;17112;48.636;10.152;2023-06-14T06:40:08;5.50;;;2.63;;
30303;SDS011;17112;48.636;10.152;2023-06-14T06:42:35;7.25;;;2.55;;
30303;SDS011;17112;48.636;10.152;2023-06-14T06:45:01;4.68;;;2.95;;
30303;SDS011;17112;48.636;10.152;2023-06-14T06:47:27;9.85;;;2.75;;
30303;SDS011;17112;48.636;10.152;2023-06-14T06:49:53;8.07;;;3.00;;
30303;SDS011;17112;48.636;10.152;2023-06-14T06:52:19;4.13;;;2.80;;
30303;SDS011;17112;48.636;10.152;2023-06-14T06:54:45;3.33;;;2.50;;
30303;SDS011;17112;48.636;10.152;2023-06-14T06:57:12;6.65;;;2.42;;
30303;SDS011;17112;48.636;10.152;2023-06-14T06:59:38;10.23;;;2.50;;
30303;SDS011;17112;48.636;10.152;2023-06-14T07:02:04;8.75;;;3.00;;
30303;SDS011;17112;48.636;10.152;2023-06-14T07:04:34;7.28;;;2.70;;
30303;SDS011;17112;48.636;10.152;2023-06-14T07:06:59;5.80;;;2.20;;
30303;SDS011;17112;48.636;10.152;2023-06-14T07:09:25;3.60;;;2.25;;
30303;SDS011;17112;48.636;10.152;2023-06-14T07:11:51;3.47;;;2.30;;
30303;SDS011;17112;48.636;10.152;2023-06-14T07:14:17;2.45;;;2.08;;
30303;SDS011;17112;48.636;10.152;2023-06-14T07:16:43;4.72;;;2.40;;
30303;SDS011;17112;48.636;10.152;2023-06-14T07:19:08;2.75;;;2.10;;
30303;SDS011;17112;48.636;10.152;2023-06-14T07:21:35;5.18;;;2.40;;
30303;SDS011;17112;48.636;10.152;2023-06-14T07:24:04;5.80;;;2.60;;
30303;SDS011;17112;48.636;10.152;2023-06-14T07:26:31;5.32;;;2.50;;
30303;SDS011;17112;48.636;10.152;2023-06-14T07:28:57;8.13;;;2.80;;
30303;SDS011;17112;48.636;10.152;2023-06-14T07:31:23;4.95;;;2.40;;
30303;SDS011;17112;48.636;10.152;2023-06-14T07:33:49;5.35;;;2.58;;
30303;SDS011;17112;48.636;10.152;2023-06-14T07:36:15;3.83;;;2.45;;
30303;SDS011;17112;48.636;10.152;2023-06-14T07:38:42;4.82;;;2.30;;
30303;SDS011;17112;48.636;10.152;2023-06-14T07:41:08;3.85;;;2.53;;
30303;SDS011;17112;48.636;10.152;2023-06-14T07:43:34;3.63;;;2.85;;
30303;SDS011;17112;48.636;10.152;2023-06-14T07:46:00;5.75;;;2.60;;
30303;SDS011;17112;48.636;10.152;2023-06-14T07:48:26;4.13;;;2.55;;
30303;SDS011;17112;48.636;10.152;2023-06-14T07:50:51;4.07;;;2.40;;
30303;SDS011;17112;48.636;10.152;2023-06-14T07:53:17;6.18;;;2.63;;
30303;SDS011;17112;48.636;10.152;2023-06-14T07:55:43;8.55;;;3.03;;
30303;SDS011;17112;48.636;10.152;2023-06-14T07:58:09;2.92;;;1.92;;
30303;SDS011;17112;48.636;10.152;2023-06-14T08:00:35;3.25;;;2.30;;
30303;SDS011;17112;48.636;10.152;2023-06-14T08:03:04;4.22;;;2.35;;
30303;SDS011;17112;48.636;10.152;2023-06-14T08:05:30;3.80;;;2.60;;
30303;SDS011;17112;48.636;10.152;2023-06-14T08:07:56;3.00;;;2.17;;
30303;SDS011;17112;48.636;10.152;2023-06-14T08:10:22;3.92;;;2.38;;
30303;SDS011;17112;48.636;10.152;2023-06-14T08:12:48;5.43;;;2.50;;
30303;SDS011;17112;48.636;10.152;2023-06-14T08:15:17;3.05;;;2.28;;
30303;SDS011;17112;48.636;10.152;2023-06-14T08:17:43;3.95;;;2.70;;
30303;SDS011;17112;48.636;10.152;2023-06-14T08:20:10;6.90;;;2.35;;
30303;SDS011;17112;48.636;10.152;2023-06-14T08:22:36;3.80;;;2.42;;
30303;SDS011;17112;48.636;10.152;2023-06-14T08:25:02;9.13;;;2.55;;
30303;SDS011;17112;48.636;10.152;2023-06-14T08:27:28;6.43;;;1.98;;
30303;SDS011;17112;48.636;10.152;2023-06-14T08:29:54;4.88;;;2.83;;
30303;SDS011;17112;48.636;10.152;2023-06-14T08:32:21;3.75;;;2.30;;
30303;SDS011;17112;48.636;10.152;2023-06-14T08:34:47;4.03;;;2.17;;
30303;SDS011;17112;48.636;10.152;2023-06-14T08:37:12;3.30;;;2.17;;
30303;SDS011;17112;48.636;10.152;2023-06-14T08:39:38;2.80;;;2.05;;
30303;SDS011;17112;48.636;10.152;2023-06-14T08:42:04;2.72;;;2.28;;
30303;SDS011;17112;48.636;10.152;2023-06-14T08:44:32;2.33;;;2.13;;
30303;SDS011;17112;48.636;10.152;2023-06-14T08:46:59;4.60;;;2.53;;
30303;SDS011;17112;48.636;10.152;2023-06-14T08:49:25;6.60;;;2.20;;
30303;SDS011;17112;48.636;10.152;2023-06-14T08:51:58;7.47;;;2.50;;
30303;SDS011;17112;48.636;10.152;2023-06-14T08:54:25;5.78;;;2.20;;
30303;SDS011;17112;48.636;10.152;2023-06-14T08:56:55;3.85;;;2.40;;
30303;SDS011;17112;48.636;10.152;2023-06-14T08:59:27;5.95;;;1.98;;
30303;SDS011;17112;48.636;10.152;2023-06-14T09:01:53;4.68;;;2.17;;
30303;SDS011;17112;48.636;10.152;2023-06-14T09:04:22;3.72;;;2.20;;
30303;SDS011;17112;48.636;10.152;2023-06-14T09:06:50;4.25;;;2.75;;
30303;SDS011;17112;48.636;10.152;2023-06-14T09:09:20;5.43;;;2.88;;
30303;SDS011;17112;48.636;10.152;2023-06-14T09:11:46;5.90;;;2.33;;
30303;SDS011;17112;48.636;10.152;2023-06-14T09:14:12;3.42;;;2.33;;
30303;SDS011;17112;48.636;10.152;2023-06-14T09:16:38;3.38;;;2.42;;
30303;SDS011;17112;48.636;10.152;2023-06-14T09:19:05;4.13;;;2.17;;
30303;SDS011;17112;48.636;10.152;2023-06-14T09:21:33;23.40;;;2.25;;
30303;SDS011;17112;48.636;10.152;2023-06-14T09:24:01;3.95;;;2.42;;
30303;SDS011;17112;48.636;10.152;2023-06-14T09:26:27;5.30;;;2.28;;
30303;SDS011;17112;48.636;10.152;2023-06-14T09:28:54;5.90;;;2.15;;
30303;SDS011;17112;48.636;10.152;2023-06-14T09:31:20;3.30;;;1.95;;
30303;SDS011;17112;48.636;10.152;2023-06-14T09:33:50;3.78;;;2.20;;
30303;SDS011;17112;48.636;10.152;2023-06-14T09:38:52;3.47;;;1.92;;
30303;SDS011;17112;48.636;10.152;2023-06-14T09:41:19;3.25;;;1.77;;
30303;SDS011;17112;48.636;10.152;2023-06-14T09:43:46;4.40;;;2.15;;
30303;SDS011;17112;48.636;10.152;2023-06-14T09:46:13;4.85;;;2.33;;
30303;SDS011;17112;48.636;10.152;2023-06-14T09:48:39;3.80;;;2.45;;
30303;SDS011;17112;48.636;10.152;2023-06-14T09:51:09;2.85;;;2.10;;
30303;SDS011;17112;48.636;10.152;2023-06-14T09:53:38;6.25;;;1.70;;
30303;SDS011;17112;48.636;10.152;2023-06-14T09:56:06;7.32;;;2.70;;
30303;SDS011;17112;48.636;10.152;2023-06-14T09:58:32;5.38;;;2.08;;
30303;SDS011;17112;48.636;10.152;2023-06-14T10:01:01;5.57;;;2.10;;
30303;SDS011;17112;48.636;10.152;2023-06-14T10:03:28;5.88;;;1.77;;
30303;SDS011;17112;48.636;10.152;2023-06-14T10:05:55;3.30;;;2.10;;
30303;SDS011;17112;48.636;10.152;2023-06-14T10:08:27;2.83;;;2.28;;
30303;SDS011;17112;48.636;10.152;2023-06-14T10:10:58;4.03;;;1.88;;
30303;SDS011;17112;48.636;10.152;2023-06-14T10:13:25;2.20;;;1.63;;
30303;SDS011;17112;48.636;10.152;2023-06-14T10:16:05;4.13;;;1.80;;
30303;SDS011;17112;48.636;10.152;2023-06-14T10:18:41;5.47;;;2.10;;
30303;SDS011;17112;48.636;10.152;2023-06-14T10:21:28;5.87;;;2.03;;
30303;SDS011;17112;48.636;10.152;2023-06-14T10:24:03;2.58;;;1.73;;
30303;SDS011;17112;48.636;10.152;2023-06-14T10:26:32;3.97;;;1.85;;
30303;SDS011;17112;48.636;10.152;2023-06-14T10:28:59;3.17;;;1.90;;
30303;SDS011;17112;48.636;10.152;2023-06-14T10:31:44;2.53;;;1.75;;
30303;SDS011;17112;48.636;10.152;2023-06-14T10:34:22;4.50;;;2.33;;
30303;SDS011;17112;48.636;10.152;2023-06-14T10:36:59;4.47;;;2.22;;
30303;SDS011;17112;48.636;10.152;2023-06-14T10:39:28;3.17;;;2.20;;
30303;SDS011;17112;48.636;10.152;2023-06-14T10:41:55;7.65;;;2.50;;
30303;SDS011;17112;48.636;10.152;2023-06-14T10:46:54;3.65;;;2.30;;
30303;SDS011;17112;48.636;10.152;2023-06-14T10:49:37;10.10;;;2.10;;
30303;SDS011;17112;48.636;10.152;2023-06-14T10:52:15;4.53;;;2.08;;
30303;SDS011;17112;48.636;10.152;2023-06-14T10:55:06;4.82;;;2.20;;
30303;SDS011;17112;48.636;10.152;2023-06-14T10:57:43;3.67;;;1.90;;
30303;SDS011;17112;48.636;10.152;2023-06-14T11:00:11;2.40;;;1.90;;
30303;SDS011;17112;48.636;10.152;2023-06-14T11:07:55;6.60;;;3.25;;
30303;SDS011;17112;48.636;10.152;2023-06-14T11:13:07;3.35;;;2.30;;
30303;SDS011;17112;48.636;10.152;2023-06-14T11:15:33;3.63;;;2.15;;
30303;SDS011;17112;48.636;10.152;2023-06-14T11:18:01;4.35;;;1.83;;
30303;SDS011;17112;48.636;10.152;2023-06-14T11:20:29;4.25;;;2.22;;
30303;SDS011;17112;48.636;10.152;2023-06-14T11:22:56;3.63;;;2.38;;
30303;SDS011;17112;48.636;10.152;2023-06-14T11:25:22;10.35;;;2.50;;
30303;SDS011;17112;48.636;10.152;2023-06-14T11:27:49;5.70;;;2.45;;
30303;SDS011;17112;48.636;10.152;2023-06-14T11:30:15;4.30;;;2.08;;
30303;SDS011;17112;48.636;10.152;2023-06-14T11:32:42;4.97;;;2.28;;
30303;SDS011;17112;48.636;10.152;2023-06-14T11:35:11;5.13;;;2.08;;
30303;SDS011;17112;48.636;10.152;2023-06-14T11:37:37;4.30;;;2.60;;
30303;SDS011;17112;48.636;10.152;2023-06-14T11:40:04;3.17;;;2.00;;
30303;SDS011;17112;48.636;10.152;2023-06-14T11:42:35;5.95;;;2.10;;
30303;SDS011;17112;48.636;10.152;2023-06-14T11:45:01;3.53;;;2.03;;
30303;SDS011;17112;48.636;10.152;2023-06-14T11:47:36;2.90;;;2.00;;
30303;SDS011;17112;48.636;10.152;2023-06-14T11:50:05;4.60;;;2.08;;
30303;SDS011;17112;48.636;10.152;2023-06-14T11:52:33;3.20;;;2.30;;
30303;SDS011;17112;48.636;10.152;2023-06-14T11:54:59;4.55;;;2.00;;
30303;SDS011;17112;48.636;10.152;2023-06-14T11:57:30;3.30;;;1.80;;
30303;SDS011;17112;48.636;10.152;2023-06-14T11:59:58;3.80;;;1.90;;
30303;SDS011;17112;48.636;10.152;2023-06-14T12:02:24;3.67;;;2.20;;
30303;SDS011;17112;48.636;10.152;2023-06-14T12:04:52;2.13;;;1.70;;
30303;SDS011;17112;48.636;10.152;2023-06-14T12:07:18;3.47;;;2.03;;
30303;SDS011;17112;48.636;10.152;2023-06-14T12:12:18;3.58;;;2.10;;
30303;SDS011;17112;48.636;10.152;2023-06-14T12:14:47;2.70;;;2.08;;
30303;SDS011;17112;48.636;10.152;2023-06-14T12:17:13;3.70;;;1.92;;
30303;SDS011;17112;48.636;10.152;2023-06-14T12:19:42;7.88;;;2.00;;
30303;SDS011;17112;48.636;10.152;2023-06-14T12:22:15;3.97;;;2.33;;
30303;SDS011;17112;48.636;10.152;2023-06-14T12:24:45;2.38;;;1.80;;
30303;SDS011;17112;48.636;10.152;2023-06-14T12:27:11;4.57;;;2.00;;
30303;SDS011;17112;48.636;10.152;2023-06-14T12:29:40;3.60;;;1.85;;
30303;SDS011;17112;48.636;10.152;2023-06-14T12:32:09;3.05;;;2.10;;
30303;SDS011;17112;48.636;10.152;2023-06-14T12:34:35;8.63;;;2.35;;
30303;SDS011;17112;48.636;10.152;2023-06-14T12:37:02;3.03;;;2.10;;
30303;SDS011;17112;48.636;10.152;2023-06-14T12:39:29;3.70;;;2.03;;
30303;SDS011;17112;48.636;10.152;2023-06-14T12:41:58;6.32;;;2.30;;
30303;SDS011;17112;48.636;10.152;2023-06-14T12:44:24;4.70;;;2.20;;
30303;SDS011;17112;48.636;10.152;2023-06-14T12:46:50;3.50;;;1.98;;
30303;SDS011;17112;48.636;10.152;2023-06-14T12:49:19;2.67;;;1.90;;
30303;SDS011;17112;48.636;10.152;2023-06-14T12:51:45;5.13;;;2.30;;
30303;SDS011;17112;48.636;10.152;2023-06-14T12:54:11;2.22;;;1.83;;
30303;SDS011;17112;48.636;10.152;2023-06-14T12:56:37;6.25;;;2.20;;
30303;SDS011;17112;48.636;10.152;2023-06-14T12:59:03;3.33;;;1.70;;
30303;SDS011;17112;48.636;10.152;2023-06-14T13:01:29;4.63;;;2.40;;
30303;SDS011;17112;48.636;10.152;2023-06-14T13:03:55;4.13;;;1.92;;
30303;SDS011;17112;48.636;10.152;2023-06-14T13:06:21;6.05;;;2.20;;
30303;SDS011;17112;48.636;10.152;2023-06-14T13:08:50;2.88;;;1.88;;
30303;SDS011;17112;48.636;10.152;2023-06-14T13:11:15;3.08;;;2.22;;
30303;SDS011;17112;48.636;10.152;2023-06-14T13:13:41;4.90;;;2.00;;
30303;SDS011;17112;48.636;10.152;2023-06-14T13:16:07;7.35;;;2.13;;
30303;SDS011;17112;48.636;10.152;2023-06-14T13:18:33;3.58;;;1.75;;
30303;SDS011;17112;48.636;10.152;2023-06-14T13:20:58;4.65;;;2.30;;
30303;SDS011;17112;48.636;10.152;2023-06-14T13:23:24;4.93;;;1.85;;
30303;SDS011;17112;48.636;10.152;2023-06-14T13:25:50;3.97;;;2.00;;
30303;SDS011;17112;48.636;10.152;2023-06-14T13:28:16;5.10;;;2.22;;
30303;SDS011;17112;48.636;10.152;2023-06-14T13:30:42;3.30;;;1.80;;
30303;SDS011;17112;48.636;10.152;2023-06-14T13:33:08;3.42;;;1.90;;
30303;SDS011;17112;48.636;10.152;2023-06-14T13:35:33;2.13;;;1.60;;
30303;SDS011;17112;48.636;10.152;2023-06-14T13:37:59;3.95;;;1.70;;
30303;SDS011;17112;48.636;10.152;2023-06-14T13:40:26;7.60;;;1.65;;
30303;SDS011;17112;48.636;10.152;2023-06-14T13:42:51;2.22;;;1.85;;
30303;SDS011;17112;48.636;10.152;2023-06-14T13:45:17;2.67;;;1.77;;
30303;SDS011;17112;48.636;10.152;2023-06-14T13:47:43;4.80;;;2.00;;
30303;SDS011;17112;48.636;10.152;2023-06-14T13:50:09;3.60;;;1.80;;
30303;SDS011;17112;48.636;10.152;2023-06-14T13:52:35;3.58;;;1.73;;
30303;SDS011;17112;48.636;10.152;2023-06-14T13:55:01;3.90;;;1.90;;
30303;SDS011;17112;48.636;10.152;2023-06-14T13:57:27;7.25;;;2.30;;
30303;SDS011;17112;48.636;10.152;2023-06-14T13:59:53;3.40;;;1.77;;
30303;SDS011;17112;48.636;10.152;2023-06-14T14:02:20;8.20;;;2.03;;
30303;SDS011;17112;48.636;10.152;2023-06-14T14:04:46;2.10;;;1.80;;
30303;SDS011;17112;48.636;10.152;2023-06-14T14:07:17;3.15;;;1.85;;
30303;SDS011;17112;48.636;10.152;2023-06-14T14:09:44;3.78;;;1.95;;
30303;SDS011;17112;48.636;10.152;2023-06-14T14:12:15;3.22;;;2.00;;
30303;SDS011;17112;48.636;10.152;2023-06-14T14:14:41;2.80;;;1.85;;
30303;SDS011;17112;48.636;10.152;2023-06-14T14:17:06;2.22;;;1.88;;
30303;SDS011;17112;48.636;10.152;2023-06-14T14:19:32;6.50;;;2.05;;
30303;SDS011;17112;48.636;10.152;2023-06-14T14:21:58;5.28;;;2.08;;
30303;SDS011;17112;48.636;10.152;2023-06-14T14:24:24;4.28;;;2.22;;
30303;SDS011;17112;48.636;10.152;2023-06-14T14:26:50;3.67;;;1.90;;
30303;SDS011;17112;48.636;10.152;2023-06-14T14:29:18;3.17;;;1.92;;
30303;SDS011;17112;48.636;10.152;2023-06-14T14:31:44;8.48;;;2.92;;
30303;SDS011;17112;48.636;10.152;2023-06-14T14:34:11;3.88;;;1.95;;
30303;SDS011;17112;48.636;10.152;2023-06-14T14:36:37;2.75;;;1.90;;
30303;SDS011;17112;48.636;10.152;2023-06-14T14:39:06;6.60;;;2.08;;
30303;SDS011;17112;48.636;10.152;2023-06-14T14:41:32;2.95;;;1.80;;
30303;SDS011;17112;48.636;10.152;2023-06-14T14:43:57;5.53;;;1.90;;
30303;SDS011;17112;48.636;10.152;2023-06-14T14:46:25;7.43;;;2.15;;
30303;SDS011;17112;48.636;10.152;2023-06-14T14:48:52;2.83;;;1.80;;
30303;SDS011;17112;48.636;10.152;2023-06-14T14:51:18;3.50;;;2.30;;
30303;SDS011;17112;48.636;10.152;2023-06-14T14:53:44;2.33;;;2.00;;
30303;SDS011;17112;48.636;10.152;2023-06-14T14:56:10;6.55;;;2.10;;